createdAt,value
2023-01-13T00:00:09.251Z,5.80
2023-01-13T00:01:21.929Z,9.38
2023-01-13T00:02:33.386Z,6.25
2023-01-13T00:03:45.145Z,6.93
2023-01-13T00:04:56.695Z,7.05
2023-01-13T00:06:09.546Z,7.82
2023-01-13T00:07:20.950Z,6.70
2023-01-13T00:08:32.722Z,8.20
2023-01-13T00:09:44.159Z,6.70
2023-01-13T00:10:55.598Z,9.95
2023-01-13T00:12:07.046Z,6.65
2023-01-13T00:13:26.508Z,7.97
2023-01-13T00:14:37.962Z,9.85
2023-01-13T00:15:55.780Z,10.00
2023-01-13T00:17:07.213Z,14.25
2023-01-13T00:18:18.610Z,8.20
2023-01-13T00:19:30.116Z,14.50
2023-01-13T00:20:41.549Z,8.65
2023-01-13T00:21:52.968Z,8.05
2023-01-13T00:23:04.483Z,7.00
2023-01-13T00:24:15.874Z,8.27
2023-01-13T00:25:27.379Z,7.07
2023-01-13T00:26:38.777Z,6.53
2023-01-13T00:27:50.201Z,6.38
2023-01-13T00:29:01.955Z,15.60
2023-01-13T00:30:13.537Z,14.65
2023-01-13T00:31:25.103Z,16.10
2023-01-13T00:32:36.626Z,11.60
2023-01-13T00:33:49.417Z,10.57
2023-01-13T00:35:00.898Z,11.05
2023-01-13T00:36:13.418Z,7.50
2023-01-13T00:37:25.319Z,9.30
2023-01-13T00:38:37.829Z,6.47
2023-01-13T00:39:50.779Z,9.23
2023-01-13T00:41:03.822Z,7.28
2023-01-13T00:42:33.743Z,6.40
2023-01-13T00:43:45.455Z,5.90
2023-01-13T00:44:56.892Z,6.63
2023-01-13T00:46:09.384Z,6.97
2023-01-13T00:47:20.867Z,5.85
2023-01-13T00:48:32.982Z,6.25
2023-01-13T00:49:44.943Z,6.88
2023-01-13T00:50:56.398Z,6.20
2023-01-13T00:52:07.850Z,4.97
2023-01-13T00:53:19.238Z,5.22
2023-01-13T00:54:30.630Z,6.03
2023-01-13T00:55:42.070Z,7.05
2023-01-13T00:56:53.495Z,5.13
2023-01-13T00:58:04.916Z,10.30
2023-01-13T00:59:16.391Z,6.60
2023-01-13T01:00:27.808Z,3.50
2023-01-13T01:01:39.655Z,6.30
2023-01-13T01:02:51.305Z,4.70
2023-01-13T01:04:02.741Z,5.50
2023-01-13T01:05:14.196Z,5.38
2023-01-13T01:06:26.377Z,7.10
2023-01-13T01:07:37.792Z,8.75
2023-01-13T01:08:49.292Z,5.78
2023-01-13T01:10:00.753Z,4.43
2023-01-13T01:11:13.550Z,9.68
2023-01-13T01:12:24.977Z,7.43
2023-01-13T01:13:36.508Z,8.02
2023-01-13T01:14:47.968Z,7.53
2023-01-13T01:15:59.923Z,5.30
2023-01-13T01:17:11.382Z,6.45
2023-01-13T01:18:22.782Z,4.25
2023-01-13T01:19:37.416Z,8.38
2023-01-13T01:20:48.857Z,4.68
2023-01-13T01:22:00.250Z,6.68
2023-01-13T01:23:11.662Z,6.32
2023-01-13T01:24:23.159Z,5.43
2023-01-13T01:25:34.584Z,6.38
2023-01-13T01:26:46.038Z,4.45
2023-01-13T01:27:57.459Z,5.72
2023-01-13T01:29:11.727Z,5.78
2023-01-13T01:30:23.325Z,6.60
2023-01-13T01:31:34.975Z,7.13
2023-01-13T01:32:46.426Z,5.75
2023-01-13T01:33:58.578Z,8.88
2023-01-13T01:35:10.038Z,14.02
2023-01-13T01:36:22.602Z,14.40
2023-01-13T01:37:34.035Z,15.20
2023-01-13T01:38:45.773Z,10.75
2023-01-13T01:39:57.194Z,11.48
2023-01-13T01:41:10.099Z,11.93
2023-01-13T01:42:41.371Z,14.82
2023-01-13T01:44:00.167Z,14.60
2023-01-13T01:45:20.049Z,16.17
2023-01-13T01:46:39.407Z,10.88
2023-01-13T01:47:57.582Z,20.25
2023-01-13T01:49:12.624Z,13.50
2023-01-13T01:50:24.328Z,11.27
2023-01-13T01:51:38.519Z,9.60
2023-01-13T01:52:51.908Z,10.68
2023-01-13T01:54:04.425Z,12.27
2023-01-13T01:55:18.142Z,7.82
2023-01-13T01:56:29.839Z,9.40
2023-01-13T01:57:41.254Z,12.15
2023-01-13T01:58:53.781Z,12.50
2023-01-13T02:00:05.438Z,10.02
2023-01-13T02:01:17.738Z,16.13
2023-01-13T02:02:30.315Z,10.60
2023-01-13T02:03:43.959Z,16.75
2023-01-13T02:04:56.922Z,15.65
2023-01-13T02:06:08.381Z,14.45
2023-01-13T02:07:22.284Z,12.80
2023-01-13T02:08:33.818Z,11.15
2023-01-13T02:09:45.243Z,21.33
2023-01-13T02:10:56.703Z,15.02
2023-01-13T02:12:26.379Z,16.58
2023-01-13T02:13:37.811Z,13.00
2023-01-13T02:14:49.355Z,14.82
2023-01-13T02:16:22.761Z,10.75
2023-01-13T02:17:53.056Z,9.35
2023-01-13T02:19:22.794Z,12.20
2023-01-13T02:20:37.327Z,11.80
2023-01-13T02:22:00.911Z,10.18
2023-01-13T02:23:37.297Z,8.63
2023-01-13T02:24:54.651Z,6.90
2023-01-13T02:26:25.298Z,9.27
2023-01-13T02:27:42.796Z,11.63
2023-01-13T02:29:31.824Z,21.55
2023-01-13T02:31:08.227Z,20.30
2023-01-13T02:32:20.774Z,16.17
2023-01-13T02:33:32.159Z,22.15
2023-01-13T02:34:46.497Z,19.77
2023-01-13T02:36:02.508Z,14.20
2023-01-13T02:37:20.137Z,12.68
2023-01-13T02:38:34.561Z,9.70
2023-01-13T02:39:50.861Z,13.35
2023-01-13T02:41:25.354Z,9.50
2023-01-13T02:42:59.413Z,11.93
2023-01-13T02:44:12.334Z,9.02
2023-01-13T02:45:37.179Z,7.57
2023-01-13T02:46:51.914Z,12.65
2023-01-13T02:48:05.670Z,18.25
2023-01-13T02:49:22.110Z,22.17
2023-01-13T02:50:39.376Z,112.43
2023-01-13T02:51:52.317Z,72.78
2023-01-13T02:53:15.659Z,67.88
2023-01-13T02:54:28.470Z,56.75
2023-01-13T02:55:44.322Z,60.92
2023-01-13T02:56:58.122Z,58.15
2023-01-13T02:58:11.235Z,51.92
2023-01-13T02:59:26.243Z,43.38
2023-01-13T03:00:37.942Z,40.80
2023-01-13T03:01:50.328Z,45.13
2023-01-13T03:03:02.383Z,44.58
2023-01-13T03:04:14.553Z,38.95
2023-01-13T03:05:26.708Z,35.35
2023-01-13T03:06:58.540Z,27.23
2023-01-13T03:08:17.851Z,21.65
2023-01-13T03:09:32.806Z,22.70
2023-01-13T03:10:50.637Z,24.85
2023-01-13T03:12:20.844Z,22.98
2023-01-13T03:13:38.999Z,26.88
2023-01-13T03:14:50.449Z,20.25
2023-01-13T03:16:20.643Z,19.80
2023-01-13T03:17:37.724Z,22.13
2023-01-13T03:18:49.129Z,20.23
2023-01-13T03:20:06.572Z,21.67
2023-01-13T03:21:23.971Z,22.05
2023-01-13T03:22:38.729Z,29.08
2023-01-13T03:23:50.175Z,23.48
2023-01-13T03:25:01.865Z,26.27
2023-01-13T03:26:16.827Z,27.10
2023-01-13T03:27:35.734Z,17.70
2023-01-13T03:28:52.261Z,23.95
2023-01-13T03:30:06.625Z,33.20
2023-01-13T03:31:20.783Z,22.05
2023-01-13T03:32:34.855Z,21.80
2023-01-13T03:33:53.992Z,16.83
2023-01-13T03:35:24.012Z,23.15
2023-01-13T03:36:36.817Z,23.77
2023-01-13T03:37:51.840Z,16.75
2023-01-13T03:39:13.399Z,17.65
2023-01-13T03:40:29.893Z,19.80
2023-01-13T03:41:53.041Z,16.92
2023-01-13T03:43:27.045Z,14.25
2023-01-13T03:44:38.503Z,14.90
2023-01-13T03:45:51.858Z,14.38
2023-01-13T03:47:04.098Z,13.50
2023-01-13T03:48:18.110Z,17.73
2023-01-13T03:49:33.204Z,12.77
2023-01-13T03:50:47.641Z,14.45
2023-01-13T03:52:01.919Z,8.25
2023-01-13T03:53:25.398Z,18.90
2023-01-13T03:54:42.558Z,14.88
2023-01-13T03:56:02.551Z,16.33
2023-01-13T03:57:15.536Z,14.50
2023-01-13T03:58:33.281Z,15.02
2023-01-13T03:59:48.164Z,11.80
2023-01-13T04:01:11.401Z,11.60
2023-01-13T04:02:29.570Z,11.27
2023-01-13T04:03:41.083Z,11.10
2023-01-13T04:04:56.342Z,8.68
2023-01-13T04:06:16.014Z,10.05
2023-01-13T04:07:30.250Z,13.35
2023-01-13T04:08:44.688Z,9.80
2023-01-13T04:09:57.863Z,9.23
2023-01-13T04:11:14.638Z,11.23
2023-01-13T04:12:48.359Z,11.48
2023-01-13T04:14:00.649Z,11.98
2023-01-13T04:15:12.274Z,11.15
2023-01-13T04:16:23.819Z,14.23
2023-01-13T04:17:35.259Z,12.95
2023-01-13T04:18:49.903Z,11.68
2023-01-13T04:20:01.381Z,16.33
2023-01-13T04:21:12.904Z,10.00
2023-01-13T04:22:24.435Z,10.10
2023-01-13T04:23:36.031Z,12.52
2023-01-13T04:24:48.042Z,10.93
2023-01-13T04:25:59.600Z,11.32
2023-01-13T04:27:11.019Z,9.30
2023-01-13T04:28:22.855Z,9.35
2023-01-13T04:29:34.332Z,16.42
2023-01-13T04:30:46.134Z,10.10
2023-01-13T04:31:57.577Z,13.70
2023-01-13T04:33:09.299Z,13.40
2023-01-13T04:34:20.747Z,17.52
2023-01-13T04:35:32.878Z,16.05
2023-01-13T04:36:45.196Z,12.32
2023-01-13T04:37:56.675Z,14.88
2023-01-13T04:39:08.105Z,10.23
2023-01-13T04:40:19.544Z,16.42
2023-01-13T04:41:50.930Z,15.73
2023-01-13T04:43:03.138Z,14.07
2023-01-13T04:44:14.591Z,10.43
2023-01-13T04:45:26.153Z,12.00
2023-01-13T04:46:37.761Z,22.55
2023-01-13T04:47:49.361Z,26.67
2023-01-13T04:49:00.807Z,23.40
2023-01-13T04:50:12.341Z,13.65
2023-01-13T04:51:23.821Z,22.10
2023-01-13T04:52:35.289Z,24.13
2023-01-13T04:53:47.173Z,17.17
2023-01-13T04:54:58.657Z,16.23
2023-01-13T04:56:10.170Z,17.10
2023-01-13T04:57:21.624Z,18.80
2023-01-13T04:58:33.035Z,17.20
2023-01-13T04:59:44.569Z,16.33
2023-01-13T05:00:56.141Z,15.93
2023-01-13T05:02:09.106Z,12.30
2023-01-13T05:03:20.604Z,13.60
2023-01-13T05:04:32.128Z,14.38
2023-01-13T05:05:43.610Z,18.60
2023-01-13T05:06:55.046Z,13.05
2023-01-13T05:08:06.561Z,14.75
2023-01-13T05:09:18.142Z,13.75
2023-01-13T05:10:29.679Z,19.42
2023-01-13T05:12:00.117Z,17.80
2023-01-13T05:13:29.983Z,14.43
2023-01-13T05:14:59.743Z,33.90
2023-01-13T05:16:35.116Z,35.38
2023-01-13T05:17:46.781Z,33.13
2023-01-13T05:18:58.217Z,72.38
2023-01-13T05:20:10.040Z,43.03
2023-01-13T05:21:39.857Z,114.05
2023-01-13T05:23:10.066Z,101.38
2023-01-13T05:24:44.381Z,119.57
2023-01-13T05:25:55.849Z,103.43
2023-01-13T05:27:07.283Z,78.13
2023-01-13T05:28:18.756Z,84.85
2023-01-13T05:29:30.152Z,56.83
2023-01-13T05:30:46.184Z,34.90
2023-01-13T05:31:57.635Z,24.33
2023-01-13T05:33:09.524Z,20.05
2023-01-13T05:34:20.949Z,17.67
2023-01-13T05:35:32.446Z,15.88
2023-01-13T05:36:43.892Z,18.13
2023-01-13T05:37:55.738Z,23.08
2023-01-13T05:39:07.214Z,17.95
2023-01-13T05:40:37.587Z,26.13
2023-01-13T05:42:07.419Z,25.20
2023-01-13T05:43:20.535Z,22.90
2023-01-13T05:44:31.937Z,22.63
2023-01-13T05:45:43.421Z,26.77
2023-01-13T05:46:54.869Z,27.92
2023-01-13T05:48:06.429Z,14.18
2023-01-13T05:49:18.016Z,16.25
2023-01-13T05:50:29.442Z,23.17
2023-01-13T05:51:41.190Z,16.63
2023-01-13T05:52:52.651Z,15.90
2023-01-13T05:54:04.105Z,18.77
2023-01-13T05:55:15.655Z,15.63
2023-01-13T05:56:27.114Z,23.35
2023-01-13T05:57:38.572Z,21.90
2023-01-13T05:58:50.017Z,22.48
2023-01-13T06:00:01.526Z,31.77
2023-01-13T06:01:13.041Z,23.00
2023-01-13T06:02:24.871Z,29.60
2023-01-13T06:03:36.720Z,37.92
2023-01-13T06:04:48.225Z,22.33
2023-01-13T06:06:01.910Z,22.38
2023-01-13T06:07:13.418Z,22.27
2023-01-13T06:08:25.209Z,27.27
2023-01-13T06:09:36.624Z,23.95
2023-01-13T06:10:48.098Z,24.48
2023-01-13T06:11:59.590Z,28.70
2023-01-13T06:13:11.144Z,30.90
2023-01-13T06:14:23.221Z,41.63
2023-01-13T06:15:34.661Z,39.72
2023-01-13T06:16:46.170Z,35.13
2023-01-13T06:17:57.711Z,35.53
2023-01-13T06:19:11.792Z,36.13
2023-01-13T06:20:23.987Z,36.67
2023-01-13T06:21:35.716Z,29.00
2023-01-13T06:22:48.043Z,28.67
2023-01-13T06:23:59.552Z,28.20
2023-01-13T06:25:31.214Z,27.20
2023-01-13T06:26:42.884Z,30.10
2023-01-13T06:27:54.796Z,29.67
2023-01-13T06:29:06.723Z,26.50
2023-01-13T06:30:18.180Z,33.65
2023-01-13T06:31:30.172Z,30.20
2023-01-13T06:32:44.147Z,40.08
2023-01-13T06:33:58.600Z,157.15
2023-01-13T06:35:12.164Z,145.63
2023-01-13T06:36:25.690Z,78.20
2023-01-13T06:37:37.673Z,64.25
2023-01-13T06:38:51.099Z,76.68
2023-01-13T06:40:04.000Z,62.78
2023-01-13T06:41:15.823Z,59.45
2023-01-13T06:42:46.849Z,56.03
2023-01-13T06:43:58.294Z,51.58
2023-01-13T06:45:10.097Z,56.30
2023-01-13T06:46:21.635Z,47.22
2023-01-13T06:47:33.226Z,38.38
2023-01-13T06:48:44.729Z,41.25
2023-01-13T06:49:56.235Z,33.80
2023-01-13T06:51:07.675Z,35.22
2023-01-13T06:52:19.091Z,32.33
2023-01-13T06:53:30.568Z,21.08
2023-01-13T06:54:42.065Z,27.35
2023-01-13T06:55:53.563Z,24.45
2023-01-13T06:57:05.019Z,24.75
2023-01-13T06:58:16.644Z,37.05
2023-01-13T06:59:28.115Z,30.10
2023-01-13T07:00:39.674Z,35.28
2023-01-13T07:01:51.303Z,33.80
2023-01-13T07:03:07.195Z,37.35
2023-01-13T07:04:19.037Z,28.15
2023-01-13T07:05:30.465Z,28.55
2023-01-13T07:06:42.022Z,29.65
2023-01-13T07:07:53.427Z,32.05
2023-01-13T07:09:06.844Z,24.23
2023-01-13T07:10:22.446Z,24.05
2023-01-13T07:11:34.076Z,21.00
2023-01-13T07:13:03.981Z,21.77
2023-01-13T07:14:33.833Z,19.33
2023-01-13T07:15:55.336Z,25.17
2023-01-13T07:17:06.815Z,21.98
2023-01-13T07:18:18.290Z,23.58
2023-01-13T07:19:29.778Z,19.73
2023-01-13T07:20:41.198Z,24.25
2023-01-13T07:21:52.830Z,30.00
2023-01-13T07:23:04.320Z,27.23
2023-01-13T07:24:15.826Z,19.38
2023-01-13T07:25:27.290Z,13.48
2023-01-13T07:26:38.943Z,11.65
2023-01-13T07:27:50.424Z,13.48
2023-01-13T07:29:01.864Z,26.73
2023-01-13T07:30:13.450Z,36.28
2023-01-13T07:31:26.045Z,27.17
2023-01-13T07:32:37.578Z,18.02
2023-01-13T07:33:49.326Z,20.30
2023-01-13T07:35:05.369Z,18.40
2023-01-13T07:36:16.822Z,16.42
2023-01-13T07:37:28.246Z,14.88
2023-01-13T07:38:40.068Z,11.80
2023-01-13T07:39:51.552Z,14.88
2023-01-13T07:41:22.933Z,12.95
2023-01-13T07:42:53.054Z,13.10
2023-01-13T07:44:05.097Z,13.07
2023-01-13T07:45:16.624Z,15.18
2023-01-13T07:46:28.095Z,13.60
2023-01-13T07:47:39.890Z,13.75
2023-01-13T07:48:51.491Z,12.65
2023-01-13T07:50:03.155Z,11.85
2023-01-13T07:51:14.769Z,11.68
2023-01-13T07:52:26.247Z,12.48
2023-01-13T07:53:38.169Z,14.50
2023-01-13T07:54:50.151Z,14.52
2023-01-13T07:56:02.054Z,14.32
2023-01-13T07:57:13.527Z,13.40
2023-01-13T07:58:25.684Z,14.00
2023-01-13T07:59:37.529Z,11.07
2023-01-13T08:00:49.015Z,16.30
2023-01-13T08:02:01.299Z,14.68
2023-01-13T08:03:12.965Z,12.07
2023-01-13T08:04:24.436Z,10.25
2023-01-13T08:05:36.391Z,13.77
2023-01-13T08:06:48.049Z,11.25
2023-01-13T08:07:59.483Z,9.25
2023-01-13T08:09:11.022Z,13.38
2023-01-13T08:10:22.615Z,14.05
2023-01-13T08:11:34.180Z,17.85
2023-01-13T08:13:04.311Z,16.90
2023-01-13T08:14:15.828Z,13.27
2023-01-13T08:15:27.399Z,24.58
2023-01-13T08:16:38.844Z,11.38
2023-01-13T08:17:50.259Z,12.82
2023-01-13T08:19:01.716Z,15.63
2023-01-13T08:20:13.448Z,18.67
2023-01-13T08:21:24.884Z,25.50
2023-01-13T08:22:36.347Z,11.45
2023-01-13T08:23:47.988Z,15.32
2023-01-13T08:24:59.859Z,17.83
2023-01-13T08:26:14.914Z,12.38
2023-01-13T08:27:26.372Z,14.82
2023-01-13T08:28:38.036Z,14.50
2023-01-13T08:29:49.518Z,18.42
2023-01-13T08:31:02.067Z,11.23
2023-01-13T08:32:13.693Z,14.43
2023-01-13T08:33:25.444Z,16.65
2023-01-13T08:34:37.033Z,15.90
2023-01-13T08:35:49.164Z,13.23
2023-01-13T08:37:00.598Z,14.88
2023-01-13T08:38:12.041Z,11.52
2023-01-13T08:39:24.471Z,16.08
2023-01-13T08:40:35.907Z,15.85
2023-01-13T08:41:56.351Z,20.52
2023-01-13T08:43:07.841Z,18.90
2023-01-13T08:44:19.460Z,13.70
2023-01-13T08:45:30.914Z,17.48
2023-01-13T08:46:42.338Z,16.20
2023-01-13T08:47:53.890Z,17.23
2023-01-13T08:49:05.405Z,14.77
2023-01-13T08:50:17.157Z,13.30
2023-01-13T08:51:28.670Z,13.32
2023-01-13T08:52:40.331Z,15.68
2023-01-13T08:53:51.791Z,16.48
2023-01-13T08:55:03.327Z,18.83
2023-01-13T08:56:15.037Z,14.93
2023-01-13T08:57:26.588Z,20.08
2023-01-13T08:58:38.258Z,15.55
2023-01-13T08:59:49.710Z,11.55
2023-01-13T09:01:04.701Z,16.48
2023-01-13T09:02:17.765Z,14.43
2023-01-13T09:03:29.285Z,15.73
2023-01-13T09:04:40.769Z,14.95
2023-01-13T09:05:52.309Z,18.95
2023-01-13T09:07:03.796Z,17.35
2023-01-13T09:08:15.352Z,16.42
2023-01-13T09:09:27.810Z,16.20
2023-01-13T09:10:40.530Z,12.32
2023-01-13T09:12:10.517Z,20.95
2023-01-13T09:13:21.978Z,15.27
2023-01-13T09:14:34.394Z,16.83
2023-01-13T09:15:46.250Z,13.93
2023-01-13T09:16:57.988Z,15.20
2023-01-13T09:18:09.606Z,11.77
2023-01-13T09:19:21.123Z,17.52
2023-01-13T09:20:32.575Z,13.73
2023-01-13T09:21:44.051Z,15.32
2023-01-13T09:22:55.552Z,11.95
2023-01-13T09:24:07.260Z,13.65
2023-01-13T09:25:18.757Z,12.75
2023-01-13T09:26:30.303Z,17.63
2023-01-13T09:27:41.731Z,14.52
2023-01-13T09:28:53.209Z,13.57
2023-01-13T09:30:05.158Z,11.00
2023-01-13T09:31:16.691Z,17.30
2023-01-13T09:32:28.214Z,13.85
2023-01-13T09:33:58.017Z,12.48
2023-01-13T09:35:09.683Z,11.90
2023-01-13T09:36:21.226Z,13.27
2023-01-13T09:37:34.377Z,12.48
2023-01-13T09:38:45.895Z,12.05
2023-01-13T09:39:57.552Z,13.63
2023-01-13T09:41:35.240Z,11.32
2023-01-13T09:43:12.426Z,10.40
2023-01-13T09:44:27.079Z,8.85
2023-01-13T09:45:43.122Z,10.05
2023-01-13T09:46:58.299Z,12.73
2023-01-13T09:48:12.518Z,9.52
2023-01-13T09:49:26.325Z,6.78
2023-01-13T09:50:37.744Z,7.82
2023-01-13T09:51:55.015Z,7.18
2023-01-13T09:53:08.084Z,6.80
2023-01-13T09:54:22.655Z,7.90
2023-01-13T09:55:36.862Z,7.25
2023-01-13T09:56:48.577Z,6.78
2023-01-13T09:58:01.827Z,9.35
2023-01-13T09:59:13.531Z,8.60
2023-01-13T10:00:26.997Z,11.48
2023-01-13T10:01:53.798Z,10.48
2023-01-13T10:03:08.057Z,8.00
2023-01-13T10:04:19.624Z,9.70
2023-01-13T10:05:45.059Z,9.55
2023-01-13T10:06:59.662Z,10.77
2023-01-13T10:08:13.496Z,7.78
2023-01-13T10:09:27.968Z,10.30
2023-01-13T10:10:42.580Z,9.93
2023-01-13T10:12:28.177Z,8.88
2023-01-13T10:13:39.837Z,6.72
2023-01-13T10:14:57.329Z,8.70
2023-01-13T10:16:12.034Z,8.25
2023-01-13T10:17:26.277Z,9.13
2023-01-13T10:18:46.890Z,8.35
2023-01-13T10:20:08.304Z,13.02
2023-01-13T10:21:23.092Z,14.52
2023-01-13T10:22:47.891Z,13.70
2023-01-13T10:24:04.239Z,9.98
2023-01-13T10:25:33.633Z,8.88
2023-01-13T10:26:52.191Z,10.43
2023-01-13T10:28:11.261Z,8.18
2023-01-13T10:29:25.346Z,10.63
2023-01-13T10:30:40.206Z,10.93
2023-01-13T10:31:52.959Z,11.95
2023-01-13T10:33:12.304Z,9.10
2023-01-13T10:34:24.244Z,9.30
2023-01-13T10:35:49.353Z,9.85
2023-01-13T10:37:07.978Z,15.90
2023-01-13T10:38:38.351Z,13.07
2023-01-13T10:39:52.058Z,10.25
2023-01-13T10:41:19.733Z,9.85
2023-01-13T10:42:31.168Z,12.73
2023-01-13T10:43:43.293Z,8.40
2023-01-13T10:44:56.077Z,8.13
2023-01-13T10:46:11.049Z,9.02
2023-01-13T10:47:24.216Z,8.07
2023-01-13T10:48:41.027Z,9.68
2023-01-13T10:50:19.058Z,9.65
2023-01-13T10:51:39.748Z,11.40
2023-01-13T10:52:57.724Z,10.38
2023-01-13T10:54:15.177Z,13.40
2023-01-13T10:55:26.837Z,7.90
2023-01-13T10:56:39.150Z,9.40
2023-01-13T10:57:50.626Z,10.68
2023-01-13T10:59:15.756Z,8.27
2023-01-13T11:00:31.621Z,8.70
2023-01-13T11:01:53.131Z,11.00
2023-01-13T11:03:12.908Z,5.65
2023-01-13T11:04:31.881Z,5.93
2023-01-13T11:05:50.681Z,5.13
2023-01-13T11:07:06.358Z,7.03
2023-01-13T11:08:19.798Z,6.60
2023-01-13T11:09:31.884Z,8.32
2023-01-13T11:10:48.483Z,9.02
2023-01-13T11:12:00.324Z,7.03
2023-01-13T11:13:14.791Z,5.65
2023-01-13T11:14:41.508Z,6.03
2023-01-13T11:16:13.388Z,8.73
2023-01-13T11:17:33.357Z,6.38
2023-01-13T11:19:14.216Z,4.80
2023-01-13T11:20:32.452Z,5.22
2023-01-13T11:21:47.050Z,5.47
2023-01-13T11:23:01.352Z,5.50
2023-01-13T11:24:16.691Z,5.70
2023-01-13T11:25:32.681Z,3.70
2023-01-13T11:26:47.618Z,5.53
2023-01-13T11:28:25.548Z,4.47
2023-01-13T11:29:45.320Z,4.55
2023-01-13T11:31:11.114Z,4.13
2023-01-13T11:32:23.835Z,3.72
2023-01-13T11:33:38.012Z,5.25
2023-01-13T11:35:04.531Z,3.22
2023-01-13T11:36:20.360Z,4.40
2023-01-13T11:37:33.451Z,4.75
2023-01-13T11:38:53.057Z,3.13
2023-01-13T11:40:16.597Z,3.40
2023-01-13T11:41:37.249Z,3.63
2023-01-13T11:42:59.635Z,3.58
2023-01-13T11:44:21.461Z,4.85
2023-01-13T11:45:38.207Z,2.70
2023-01-13T11:46:53.679Z,3.22
2023-01-13T11:48:05.452Z,3.25
2023-01-13T11:49:23.745Z,4.57
2023-01-13T11:50:40.637Z,3.05
2023-01-13T11:52:06.638Z,4.43
2023-01-13T11:53:27.740Z,3.35
2023-01-13T11:55:01.721Z,1.58
2023-01-13T11:56:31.870Z,2.92
2023-01-13T11:57:52.355Z,1.98
2023-01-13T11:59:12.618Z,1.67
2023-01-13T12:00:28.141Z,4.00
2023-01-13T12:01:48.802Z,1.70
2023-01-13T12:03:12.578Z,4.50
2023-01-13T12:04:29.379Z,4.82
2023-01-13T12:05:42.452Z,6.47
2023-01-13T12:07:17.023Z,4.72
2023-01-13T12:08:43.807Z,8.23
2023-01-13T12:10:15.483Z,17.95
2023-01-13T12:12:04.594Z,69.18
2023-01-13T12:13:19.062Z,78.35
2023-01-13T12:14:50.726Z,4.28
2023-01-13T12:16:08.209Z,7.32
2023-01-13T12:17:25.535Z,13.15
2023-01-13T12:18:55.562Z,17.50
2023-01-13T12:20:30.119Z,24.45
2023-01-13T12:21:44.857Z,49.90
2023-01-13T12:22:58.497Z,23.55
2023-01-13T12:24:20.310Z,11.98
2023-01-13T12:25:40.485Z,9.07
2023-01-13T12:26:55.784Z,18.30
2023-01-13T12:28:11.670Z,11.00
2023-01-13T12:29:29.608Z,8.13
2023-01-13T12:30:44.665Z,7.97
2023-01-13T12:31:56.558Z,7.00
2023-01-13T12:33:44.960Z,4.43
2023-01-13T12:35:19.652Z,2.55
2023-01-13T12:36:34.698Z,8.20
2023-01-13T12:38:16.253Z,20.02
2023-01-13T12:39:43.233Z,2.40
2023-01-13T12:41:01.245Z,3.33
2023-01-13T12:42:47.012Z,2.92
2023-01-13T12:44:17.321Z,2.47
2023-01-13T12:45:30.378Z,5.82
2023-01-13T12:46:47.659Z,9.98
2023-01-13T12:48:00.647Z,9.18
2023-01-13T12:49:20.542Z,7.43
2023-01-13T12:50:32.587Z,2.63
2023-01-13T12:51:56.290Z,2.35
2023-01-13T12:53:27.048Z,3.40
2023-01-13T12:54:41.859Z,4.80
2023-01-13T12:55:53.963Z,6.05
2023-01-13T12:57:25.349Z,5.85
2023-01-13T12:58:38.584Z,3.33
2023-01-13T12:59:59.499Z,2.58
2023-01-13T13:01:12.766Z,3.92
2023-01-13T13:02:26.170Z,2.45
2023-01-13T13:03:38.239Z,4.53
2023-01-13T13:04:52.874Z,2.38
2023-01-13T13:06:18.757Z,3.17
2023-01-13T13:07:30.241Z,6.22
2023-01-13T13:09:03.470Z,4.80
2023-01-13T13:10:24.795Z,7.72
2023-01-13T13:11:58.533Z,5.05
2023-01-13T13:13:40.041Z,3.88
2023-01-13T13:14:51.801Z,2.60
2023-01-13T13:16:22.169Z,5.82
2023-01-13T13:17:34.041Z,3.40
2023-01-13T13:18:45.532Z,4.68
2023-01-13T13:19:58.224Z,5.20
2023-01-13T13:21:10.495Z,6.18
2023-01-13T13:22:28.907Z,6.75
2023-01-13T13:23:48.710Z,5.25
2023-01-13T13:25:19.656Z,4.15
2023-01-13T13:26:33.010Z,2.78
2023-01-13T13:27:47.776Z,3.25
2023-01-13T13:29:17.929Z,1.65
2023-01-13T13:30:29.882Z,4.80
2023-01-13T13:31:47.338Z,2.25
2023-01-13T13:33:17.814Z,3.35
2023-01-13T13:34:45.537Z,7.97
2023-01-13T13:35:57.086Z,10.68
2023-01-13T13:37:11.696Z,39.15
2023-01-13T13:38:44.751Z,19.38
2023-01-13T13:40:15.268Z,30.48
2023-01-13T13:41:45.750Z,38.85
2023-01-13T13:43:16.326Z,24.58
2023-01-13T13:44:51.269Z,15.35
2023-01-13T13:46:21.379Z,4.30
2023-01-13T13:47:36.695Z,4.63
2023-01-13T13:48:52.691Z,5.20
2023-01-13T13:50:19.954Z,5.13
2023-01-13T13:51:39.168Z,5.72
2023-01-13T13:53:02.568Z,6.53
2023-01-13T13:54:16.162Z,4.82
2023-01-13T13:55:28.747Z,6.25
2023-01-13T13:56:42.399Z,3.97
2023-01-13T13:57:55.429Z,5.80
2023-01-13T13:59:09.081Z,5.13
2023-01-13T14:00:23.009Z,4.25
2023-01-13T14:01:38.720Z,6.15
2023-01-13T14:03:01.581Z,4.53
2023-01-13T14:04:18.691Z,5.40
2023-01-13T14:05:32.636Z,6.70
2023-01-13T14:06:57.814Z,5.70
2023-01-13T14:08:09.302Z,7.20
2023-01-13T14:09:21.774Z,5.00
2023-01-13T14:10:34.787Z,6.82
2023-01-13T14:11:56.920Z,4.90
2023-01-13T14:13:15.634Z,6.00
2023-01-13T14:14:27.548Z,3.45
2023-01-13T14:15:42.915Z,4.60
2023-01-13T14:16:55.110Z,4.68
2023-01-13T14:18:15.001Z,3.72
2023-01-13T14:19:29.322Z,6.68
2023-01-13T14:20:41.334Z,5.15
2023-01-13T14:21:53.476Z,6.00
2023-01-13T14:23:07.495Z,6.75
2023-01-13T14:24:21.109Z,7.65
2023-01-13T14:25:39.534Z,4.45
2023-01-13T14:26:53.260Z,3.42
2023-01-13T14:28:13.943Z,9.73
2023-01-13T14:29:25.586Z,4.25
2023-01-13T14:30:37.151Z,7.95
2023-01-13T14:31:53.042Z,6.95
2023-01-13T14:33:05.178Z,5.88
2023-01-13T14:34:31.093Z,7.75
2023-01-13T14:36:03.257Z,9.68
2023-01-13T14:37:25.593Z,10.02
2023-01-13T14:38:37.371Z,10.60
2023-01-13T14:39:48.778Z,10.43
2023-01-13T14:41:20.535Z,12.00
2023-01-13T14:42:35.676Z,9.48
2023-01-13T14:43:47.938Z,10.63
2023-01-13T14:44:59.449Z,10.48
2023-01-13T14:46:11.452Z,11.45
2023-01-13T14:47:28.018Z,9.85
2023-01-13T14:48:41.094Z,16.83
2023-01-13T14:50:00.564Z,21.08
2023-01-13T14:51:12.782Z,28.10
2023-01-13T14:52:25.538Z,19.83
2023-01-13T14:53:40.359Z,14.25
2023-01-13T14:54:53.839Z,8.43
2023-01-13T14:56:23.952Z,8.27
2023-01-13T14:57:39.616Z,13.23
2023-01-13T14:58:51.054Z,9.45
2023-01-13T15:00:14.725Z,9.73
2023-01-13T15:01:26.334Z,6.75
2023-01-13T15:02:39.555Z,6.90
2023-01-13T15:03:51.097Z,8.63
2023-01-13T15:05:17.782Z,6.13
2023-01-13T15:06:29.660Z,5.20
2023-01-13T15:07:41.707Z,5.25
2023-01-13T15:08:53.439Z,6.10
2023-01-13T15:10:05.199Z,8.10
2023-01-13T15:11:20.557Z,6.30
2023-01-13T15:12:39.370Z,7.47
2023-01-13T15:13:55.751Z,8.70
2023-01-13T15:15:20.254Z,8.35
2023-01-13T15:16:34.611Z,9.93
2023-01-13T15:17:49.150Z,10.45
2023-01-13T15:19:00.760Z,9.57
2023-01-13T15:20:19.374Z,6.43
2023-01-13T15:21:30.851Z,9.13
2023-01-13T15:22:42.332Z,7.95
2023-01-13T15:23:54.033Z,9.10
2023-01-13T15:25:05.863Z,21.75
2023-01-13T15:26:25.542Z,13.10
2023-01-13T15:27:37.613Z,31.77
2023-01-13T15:28:49.952Z,68.63
2023-01-13T15:30:01.495Z,72.15
2023-01-13T15:31:13.069Z,33.10
2023-01-13T15:32:24.555Z,31.42
2023-01-13T15:33:36.073Z,23.63
2023-01-13T15:34:47.982Z,23.60
2023-01-13T15:35:59.536Z,22.50
2023-01-13T15:37:11.469Z,20.52
2023-01-13T15:38:24.220Z,26.85
2023-01-13T15:39:35.749Z,19.10
2023-01-13T15:40:48.691Z,15.10
2023-01-13T15:42:18.416Z,13.68
2023-01-13T15:43:48.577Z,14.30
2023-01-13T15:45:18.838Z,16.10
2023-01-13T15:46:39.323Z,17.27
2023-01-13T15:47:50.972Z,22.02
2023-01-13T15:49:09.799Z,27.17
2023-01-13T15:50:22.962Z,22.70
2023-01-13T15:51:34.503Z,18.98
2023-01-13T15:52:45.936Z,18.20
2023-01-13T15:54:00.622Z,13.05
2023-01-13T15:55:12.063Z,12.82
2023-01-13T15:56:25.315Z,6.85
2023-01-13T15:57:38.789Z,7.25
2023-01-13T15:58:50.377Z,5.85
2023-01-13T16:00:04.636Z,5.50
2023-01-13T16:01:16.323Z,6.90
2023-01-13T16:02:29.814Z,6.95
2023-01-13T16:03:41.251Z,5.13
2023-01-13T16:04:54.011Z,4.50
2023-01-13T16:06:36.305Z,8.35
2023-01-13T16:07:47.838Z,4.97
2023-01-13T16:08:59.608Z,7.10
2023-01-13T16:10:20.589Z,5.45
2023-01-13T16:11:32.115Z,11.70
2023-01-13T16:12:43.566Z,7.65
2023-01-13T16:13:55.020Z,11.00
2023-01-13T16:15:07.057Z,7.45
2023-01-13T16:16:22.941Z,13.65
2023-01-13T16:17:34.847Z,15.45
2023-01-13T16:18:47.053Z,12.57
2023-01-13T16:19:58.852Z,13.13
2023-01-13T16:21:11.931Z,9.90
2023-01-13T16:22:23.556Z,8.52
2023-01-13T16:23:35.121Z,7.10
2023-01-13T16:24:48.358Z,9.18
2023-01-13T16:25:59.899Z,10.15
2023-01-13T16:27:13.468Z,9.80
2023-01-13T16:28:26.264Z,13.55